Heishin Maru — JD3459 — position and weather

sailwx.info

Track history (hours):
 
Tides and Currents Weather Stations Pressure Air Temp Water Temp Dewpoint Dewpoint Depression Visibility Wind Speed Wind Dir Waves Ship Positions

Heishin Maru

Last reported at 2017-Nov-16 04:59 UTC. Time now 2017-Nov-22 14:47 UTC.
Position N 34°09' E 135°11'.

Length 61 m.

Type: Cargo ship. MMSI: 431004145.

Date/timePositionNaut miles runAvg speedWind from/ knotsBaromVisibWave heightAir tempDewpointWater temp
2017-Nov-16 04:59N 34°09' E 135°11'1 1.3
2017-Nov-16 04:29N 34°09' E 135°12'0 0.0
2017-Nov-16 03:59N 34°09' E 135°12'0 0.0
2017-Nov-16 03:29N 34°09' E 135°12'0 0.0
2017-Nov-16 02:59N 34°09' E 135°12'0 0.0
2017-Nov-16 02:29N 34°09' E 135°12'0 0.0
2017-Nov-16 01:59N 34°09' E 135°12'0 0.0
2017-Nov-16 01:26N 34°09' E 135°12'0 0.0
2017-Nov-16 00:56N 34°09' E 135°12'0 0.0
2017-Nov-16 00:25N 34°09' E 135°12'0 0.0
2017-Nov-15 23:56N 34°09' E 135°12'0 0.0
2017-Nov-15 23:20N 34°09' E 135°12'0 0.0
2017-Nov-15 22:53N 34°09' E 135°12'0 0.0
2017-Nov-15 22:29N 34°09' E 135°12'3 6.7
2017-Nov-15 22:00N 34°10' E 135°08'510.6
2017-Nov-15 21:30N 34°14' E 135°05'1 1.5
2017-Nov-15 20:59N 34°15' E 135°06'0 0.0
2017-Nov-15 18:59N 34°15' E 135°06'0 0.0
2017-Nov-15 18:23N 34°15' E 135°06'0 0.0
2017-Nov-15 17:56N 34°15' E 135°06'0 0.0
2017-Nov-15 17:29N 34°15' E 135°06'0 0.1
2017-Nov-15 16:59N 34°15' E 135°06'0 0.2
2017-Nov-15 16:23N 34°15' E 135°06'0 0.0
2017-Nov-15 15:11N 34°15' E 135°06'0 0.0
2017-Nov-15 14:44N 34°15' E 135°06'0 0.2
2017-Nov-15 14:29N 34°15' E 135°06'0 0.0
2017-Nov-15 13:50N 34°15' E 135°06'0 0.2
2017-Nov-15 13:29N 34°15' E 135°06'0 0.0
2017-Nov-15 12:59N 34°15' E 135°06'0 0.0
2017-Nov-15 12:26N 34°15' E 135°06'0 0.1
2017-Nov-15 11:59N 34°15' E 135°06'0 0.0
2017-Nov-15 11:29N 34°15' E 135°06'0 0.1
2017-Nov-15 10:56N 34°15' E 135°06'0 0.1
2017-Nov-15 10:23N 34°15' E 135°06'0 0.0
2017-Nov-15 09:59N 34°15' E 135°06'0 0.0
2017-Nov-15 09:09N 34°15' E 135°06'0 0.0
2017-Nov-15 09:00N 34°15' E 135°06'1 0.6
2017-Nov-15 08:08N 34°15' E 135°07'0 0.0
2017-Nov-15 07:05N 34°15' E 135°07'0 2.1
2017-Nov-15 07:00N 34°15' E 135°07'0 0.2
2017-Nov-15 06:23N 34°15' E 135°07'0 0.0
2017-Nov-15 05:59N 34°15' E 135°07'0 0.0
2017-Nov-15 04:10N 34°15' E 135°07'1 3.7
2017-Nov-15 04:00N 34°14' E 135°07'27 3.6
2017-Nov-14 20:27N 34°35' E 135°27'510.0
2017-Nov-14 20:00N 34°36' E 135°22'611.6
2017-Nov-14 19:30N 34°35' E 135°15'611.9
2017-Nov-14 18:59N 34°35' E 135°07'  
2017-Nov-08 04:12N 34°36' E 135°05'211.4
2017-Nov-08 03:59N 34°36' E 135°08'15 0.7
2017-Nov-07 06:59N 34°36' E 135°25'5 0.5
2017-Nov-06 21:59N 34°40' E 135°26'2 4.5
2017-Nov-06 21:29N 34°40' E 135°23'2 3.3
2017-Nov-06 20:54N 34°39' E 135°21'0 0.1
2017-Nov-06 20:27N 34°39' E 135°21'  
Track history (hours):
 
Tides and Currents Weather Stations Pressure Air Temp Water Temp Dewpoint Dewpoint Depression Visibility Wind Speed Wind Dir Waves Ship Positions

Heishin Maru

Last reported at 2017-Nov-16 04:59 UTC. Time now 2017-Nov-22 14:47 UTC.
Position N 34°09' E 135°11'.

Length 61 m.

Type: Cargo ship. MMSI: 431004145.

Date/timePositionNaut miles runAvg speedWind from/ knotsBaromVisibWave heightAir tempDewpointWater temp
2017-Nov-16 04:59N 34°09' E 135°11'1 1.3
2017-Nov-16 04:29N 34°09' E 135°12'0 0.0
2017-Nov-16 03:59N 34°09' E 135°12'0 0.0
2017-Nov-16 03:29N 34°09' E 135°12'0 0.0
2017-Nov-16 02:59N 34°09' E 135°12'0 0.0
2017-Nov-16 02:29N 34°09' E 135°12'0 0.0
2017-Nov-16 01:59N 34°09' E 135°12'0 0.0
2017-Nov-16 01:26N 34°09' E 135°12'0 0.0
2017-Nov-16 00:56N 34°09' E 135°12'0 0.0
2017-Nov-16 00:25N 34°09' E 135°12'0 0.0
2017-Nov-15 23:56N 34°09' E 135°12'0 0.0
2017-Nov-15 23:20N 34°09' E 135°12'0 0.0
2017-Nov-15 22:53N 34°09' E 135°12'0 0.0
2017-Nov-15 22:29N 34°09' E 135°12'3 6.7
2017-Nov-15 22:00N 34°10' E 135°08'510.6
2017-Nov-15 21:30N 34°14' E 135°05'1 1.5
2017-Nov-15 20:59N 34°15' E 135°06'0 0.0
2017-Nov-15 18:59N 34°15' E 135°06'0 0.0
2017-Nov-15 18:23N 34°15' E 135°06'0 0.0
2017-Nov-15 17:56N 34°15' E 135°06'0 0.0
2017-Nov-15 17:29N 34°15' E 135°06'0 0.1
2017-Nov-15 16:59N 34°15' E 135°06'0 0.2
2017-Nov-15 16:23N 34°15' E 135°06'0 0.0
2017-Nov-15 15:11N 34°15' E 135°06'0 0.0
2017-Nov-15 14:44N 34°15' E 135°06'0 0.2
2017-Nov-15 14:29N 34°15' E 135°06'0 0.0
2017-Nov-15 13:50N 34°15' E 135°06'0 0.2
2017-Nov-15 13:29N 34°15' E 135°06'0 0.0
2017-Nov-15 12:59N 34°15' E 135°06'0 0.0
2017-Nov-15 12:26N 34°15' E 135°06'0 0.1
2017-Nov-15 11:59N 34°15' E 135°06'0 0.0
2017-Nov-15 11:29N 34°15' E 135°06'0 0.1
2017-Nov-15 10:56N 34°15' E 135°06'0 0.1
2017-Nov-15 10:23N 34°15' E 135°06'0 0.0
2017-Nov-15 09:59N 34°15' E 135°06'0 0.0
2017-Nov-15 09:09N 34°15' E 135°06'0 0.0
2017-Nov-15 09:00N 34°15' E 135°06'1 0.6
2017-Nov-15 08:08N 34°15' E 135°07'0 0.0
2017-Nov-15 07:05N 34°15' E 135°07'0 2.1
2017-Nov-15 07:00N 34°15' E 135°07'0 0.2
2017-Nov-15 06:23N 34°15' E 135°07'0 0.0
2017-Nov-15 05:59N 34°15' E 135°07'0 0.0
2017-Nov-15 04:10N 34°15' E 135°07'1 3.7
2017-Nov-15 04:00N 34°14' E 135°07'27 3.6
2017-Nov-14 20:27N 34°35' E 135°27'510.0
2017-Nov-14 20:00N 34°36' E 135°22'611.6
2017-Nov-14 19:30N 34°35' E 135°15'611.9
2017-Nov-14 18:59N 34°35' E 135°07'  
2017-Nov-08 04:12N 34°36' E 135°05'211.4
2017-Nov-08 03:59N 34°36' E 135°08'15 0.7
2017-Nov-07 06:59N 34°36' E 135°25'5 0.5
2017-Nov-06 21:59N 34°40' E 135°26'2 4.5
2017-Nov-06 21:29N 34°40' E 135°23'2 3.3
2017-Nov-06 20:54N 34°39' E 135°21'0 0.1
2017-Nov-06 20:27N 34°39' E 135°21'  

Dump ship's entire track history